sensor_id;sensor_type;location;lat;lon;timestamp;pressure;altitude;pressure_sealevel;temperature;humidity
20350;BME280;10332;50.208;18.988;2022-08-19T00:00:10;97455.78;;;25.30;70.39
20350;BME280;10332;50.208;18.988;2022-08-19T00:02:58;97455.41;;;25.27;70.63
20350;BME280;10332;50.208;18.988;2022-08-19T00:05:25;97460.78;;;25.20;70.67
20350;BME280;10332;50.208;18.988;2022-08-19T00:07:53;97467.38;;;25.17;71.16
20350;BME280;10332;50.208;18.988;2022-08-19T00:10:20;97464.69;;;25.17;70.94
20350;BME280;10332;50.208;18.988;2022-08-19T00:12:48;97474.00;;;25.08;71.66
20350;BME280;10332;50.208;18.988;2022-08-19T00:15:19;97467.41;;;25.04;71.25
20350;BME280;10332;50.208;18.988;2022-08-19T00:17:48;97465.97;;;25.08;71.36
20350;BME280;10332;50.208;18.988;2022-08-19T00:20:19;97465.97;;;25.08;71.54
20350;BME280;10332;50.208;18.988;2022-08-19T00:22:47;97457.31;;;25.06;71.65
20350;BME280;10332;50.208;18.988;2022-08-19T00:25:16;97457.13;;;25.08;71.70
20350;BME280;10332;50.208;18.988;2022-08-19T00:27:43;97446.03;;;25.04;71.87
20350;BME280;10332;50.208;18.988;2022-08-19T00:30:11;97449.13;;;25.01;72.00
20350;BME280;10332;50.208;18.988;2022-08-19T00:32:39;97443.63;;;24.89;72.54
20350;BME280;10332;50.208;18.988;2022-08-19T00:35:08;97431.09;;;24.90;72.51
20350;BME280;10332;50.208;18.988;2022-08-19T00:37:37;97437.44;;;24.89;72.64
20350;BME280;10332;50.208;18.988;2022-08-19T00:40:07;97445.28;;;24.84;72.99
20350;BME280;10332;50.208;18.988;2022-08-19T00:42:34;97439.13;;;24.77;73.38
20350;BME280;10332;50.208;18.988;2022-08-19T00:45:10;97437.28;;;24.77;72.94
20350;BME280;10332;50.208;18.988;2022-08-19T00:47:38;97434.22;;;24.80;73.09
20350;BME280;10332;50.208;18.988;2022-08-19T00:50:08;97429.69;;;24.74;73.22
20350;BME280;10332;50.208;18.988;2022-08-19T00:52:41;97430.16;;;24.65;73.67
20350;BME280;10332;50.208;18.988;2022-08-19T00:55:26;97428.28;;;24.65;73.99
20350;BME280;10332;50.208;18.988;2022-08-19T00:58:00;97425.03;;;24.63;73.78
20350;BME280;10332;50.208;18.988;2022-08-19T01:00:31;97435.47;;;24.65;74.20
20350;BME280;10332;50.208;18.988;2022-08-19T01:02:59;97429.13;;;24.59;74.21
20350;BME280;10332;50.208;18.988;2022-08-19T01:05:28;97420.28;;;24.58;74.23
20350;BME280;10332;50.208;18.988;2022-08-19T01:07:59;97426.25;;;24.60;74.29
20350;BME280;10332;50.208;18.988;2022-08-19T01:10:31;97431.41;;;24.55;74.13
20350;BME280;10332;50.208;18.988;2022-08-19T01:13:04;97424.81;;;24.51;74.62
20350;BME280;10332;50.208;18.988;2022-08-19T01:15:40;97422.16;;;24.51;74.59
20350;BME280;10332;50.208;18.988;2022-08-19T01:18:13;97424.44;;;24.54;74.72
20350;BME280;10332;50.208;18.988;2022-08-19T01:20:43;97417.44;;;24.53;74.52
20350;BME280;10332;50.208;18.988;2022-08-19T01:23:12;97408.81;;;24.51;74.84
20350;BME280;10332;50.208;18.988;2022-08-19T01:25:51;97419.09;;;24.48;74.84
20350;BME280;10332;50.208;18.988;2022-08-19T01:28:26;97419.09;;;24.48;75.11
20350;BME280;10332;50.208;18.988;2022-08-19T01:31:00;97418.06;;;24.49;74.55
20350;BME280;10332;50.208;18.988;2022-08-19T01:33:34;97415.81;;;24.46;75.07
20350;BME280;10332;50.208;18.988;2022-08-19T01:36:09;97418.28;;;24.41;75.32
20350;BME280;10332;50.208;18.988;2022-08-19T01:38:41;97418.28;;;24.41;75.13
20350;BME280;10332;50.208;18.988;2022-08-19T01:41:12;97415.63;;;24.34;75.34
20350;BME280;10332;50.208;18.988;2022-08-19T01:43:40;97419.94;;;24.42;75.14
20350;BME280;10332;50.208;18.988;2022-08-19T01:46:27;97418.13;;;24.36;75.51
20350;BME280;10332;50.208;18.988;2022-08-19T01:48:56;97407.63;;;24.34;75.27
20350;BME280;10332;50.208;18.988;2022-08-19T01:51:23;97408.88;;;24.31;75.35
20350;BME280;10332;50.208;18.988;2022-08-19T01:53:52;97412.16;;;24.27;75.78
20350;BME280;10332;50.208;18.988;2022-08-19T01:56:20;97411.94;;;24.28;75.59
20350;BME280;10332;50.208;18.988;2022-08-19T01:58:55;97399.00;;;24.25;75.64
20350;BME280;10332;50.208;18.988;2022-08-19T02:01:25;97406.81;;;24.27;75.59
20350;BME280;10332;50.208;18.988;2022-08-19T02:03:58;97406.38;;;24.23;75.65
20350;BME280;10332;50.208;18.988;2022-08-19T02:06:25;97401.69;;;24.19;75.94
20350;BME280;10332;50.208;18.988;2022-08-19T02:08:53;97406.00;;;24.13;76.34
20350;BME280;10332;50.208;18.988;2022-08-19T02:11:29;97403.72;;;24.17;76.06
20350;BME280;10332;50.208;18.988;2022-08-19T02:14:01;97408.44;;;24.15;76.26
20350;BME280;10332;50.208;18.988;2022-08-19T02:16:29;97412.53;;;24.17;76.23
20350;BME280;10332;50.208;18.988;2022-08-19T02:18:58;97401.47;;;24.07;76.66
20350;BME280;10332;50.208;18.988;2022-08-19T02:21:29;97399.03;;;24.05;76.72
20350;BME280;10332;50.208;18.988;2022-08-19T02:23:57;97404.16;;;24.14;76.53
20350;BME280;10332;50.208;18.988;2022-08-19T02:26:25;97406.81;;;24.14;76.46
20350;BME280;10332;50.208;18.988;2022-08-19T02:28:55;97403.75;;;24.03;76.85
20350;BME280;10332;50.208;18.988;2022-08-19T02:31:25;97406.00;;;24.13;76.56
20350;BME280;10332;50.208;18.988;2022-08-19T02:33:56;97394.50;;;24.06;77.04
20350;BME280;10332;50.208;18.988;2022-08-19T02:36:25;97398.19;;;24.05;77.21
20350;BME280;10332;50.208;18.988;2022-08-19T02:38:53;97392.06;;;24.04;76.87
20350;BME280;10332;50.208;18.988;2022-08-19T02:41:26;97396.16;;;23.94;77.91
20350;BME280;10332;50.208;18.988;2022-08-19T02:43:59;97396.56;;;23.97;77.43
20350;BME280;10332;50.208;18.988;2022-08-19T02:46:48;97396.34;;;23.99;77.58
20350;BME280;10332;50.208;18.988;2022-08-19T02:49:19;97400.25;;;23.96;77.62
20350;BME280;10332;50.208;18.988;2022-08-19T02:51:47;97396.38;;;23.92;77.85
20350;BME280;10332;50.208;18.988;2022-08-19T02:54:15;97388.16;;;23.81;78.79
20350;BME280;10332;50.208;18.988;2022-08-19T02:56:44;97383.88;;;23.86;78.18
20350;BME280;10332;50.208;18.988;2022-08-19T02:59:12;97378.75;;;23.85;78.11
20350;BME280;10332;50.208;18.988;2022-08-19T03:01:41;97384.69;;;23.80;78.23
20350;BME280;10332;50.208;18.988;2022-08-19T03:04:13;97390.22;;;23.78;78.18
20350;BME280;10332;50.208;18.988;2022-08-19T03:06:45;97394.13;;;23.76;78.30
20350;BME280;10332;50.208;18.988;2022-08-19T03:09:14;97394.53;;;23.73;78.74
20350;BME280;10332;50.208;18.988;2022-08-19T03:11:42;97392.88;;;23.72;78.62
20350;BME280;10332;50.208;18.988;2022-08-19T03:14:10;97394.94;;;23.76;78.07
20350;BME280;10332;50.208;18.988;2022-08-19T03:16:48;97398.84;;;23.74;78.48
20350;BME280;10332;50.208;18.988;2022-08-19T03:19:19;97385.91;;;23.71;78.44
20350;BME280;10332;50.208;18.988;2022-08-19T03:21:49;97398.03;;;23.73;78.31
20350;BME280;10332;50.208;18.988;2022-08-19T03:24:18;97392.88;;;23.72;78.03
20350;BME280;10332;50.208;18.988;2022-08-19T03:26:50;97387.97;;;23.69;78.16
20350;BME280;10332;50.208;18.988;2022-08-19T03:29:19;97388.78;;;23.69;77.95
20350;BME280;10332;50.208;18.988;2022-08-19T03:32:04;97387.75;;;23.70;77.93
20350;BME280;10332;50.208;18.988;2022-08-19T03:34:35;97394.53;;;23.66;78.23
20350;BME280;10332;50.208;18.988;2022-08-19T03:37:11;97398.63;;;23.69;78.04
20350;BME280;10332;50.208;18.988;2022-08-19T03:39:41;97403.56;;;23.65;78.21
20350;BME280;10332;50.208;18.988;2022-08-19T03:42:10;97408.25;;;23.63;78.25
20350;BME280;10332;50.208;18.988;2022-08-19T03:44:58;97404.38;;;23.66;78.18
20350;BME280;10332;50.208;18.988;2022-08-19T03:47:25;97401.94;;;23.64;78.40
20350;BME280;10332;50.208;18.988;2022-08-19T03:49:53;97407.66;;;23.68;77.77
20350;BME280;10332;50.208;18.988;2022-08-19T03:52:20;97415.03;;;23.66;77.75
20350;BME280;10332;50.208;18.988;2022-08-19T03:54:47;97406.44;;;23.77;77.06
20350;BME280;10332;50.208;18.988;2022-08-19T03:57:15;97412.97;;;23.81;77.01
20350;BME280;10332;50.208;18.988;2022-08-19T03:59:42;97413.38;;;23.71;77.38
20350;BME280;10332;50.208;18.988;2022-08-19T04:02:12;97426.09;;;23.69;77.36
20350;BME280;10332;50.208;18.988;2022-08-19T04:04:42;97425.91;;;23.77;77.19
20350;BME280;10332;50.208;18.988;2022-08-19T04:07:13;97434.75;;;23.85;76.88
20350;BME280;10332;50.208;18.988;2022-08-19T04:09:43;97437.59;;;23.90;76.71
20350;BME280;10332;50.208;18.988;2022-08-19T04:12:10;97432.06;;;23.98;76.14
20350;BME280;10332;50.208;18.988;2022-08-19T04:14:37;97436.78;;;24.02;76.01
20350;BME280;10332;50.208;18.988;2022-08-19T04:17:06;97432.06;;;24.04;76.11
20350;BME280;10332;50.208;18.988;2022-08-19T04:19:35;97433.31;;;24.02;76.45
20350;BME280;10332;50.208;18.988;2022-08-19T04:22:04;97444.59;;;24.11;76.09
20350;BME280;10332;50.208;18.988;2022-08-19T04:24:35;97450.53;;;24.13;75.93
20350;BME280;10332;50.208;18.988;2022-08-19T04:27:03;97451.56;;;24.18;75.59
20350;BME280;10332;50.208;18.988;2022-08-19T04:29:33;97452.78;;;24.29;75.48
20350;BME280;10332;50.208;18.988;2022-08-19T04:32:00;97449.28;;;24.48;74.93
20350;BME280;10332;50.208;18.988;2022-08-19T04:34:36;97463.63;;;24.60;74.46
20350;BME280;10332;50.208;18.988;2022-08-19T04:37:24;97474.88;;;24.69;73.33
20350;BME280;10332;50.208;18.988;2022-08-19T04:39:59;97468.28;;;24.78;73.25
20350;BME280;10332;50.208;18.988;2022-08-19T04:42:45;97467.47;;;24.78;72.95
20350;BME280;10332;50.208;18.988;2022-08-19T04:45:14;97475.09;;;24.81;72.43
20350;BME280;10332;50.208;18.988;2022-08-19T04:47:44;97476.31;;;24.78;72.64
20350;BME280;10332;50.208;18.988;2022-08-19T04:50:25;97479.53;;;24.94;72.03
20350;BME280;10332;50.208;18.988;2022-08-19T04:52:53;97471.09;;;24.97;71.79
20350;BME280;10332;50.208;18.988;2022-08-19T04:55:23;97469.88;;;25.06;71.58
20350;BME280;10332;50.208;18.988;2022-08-19T04:57:54;97473.16;;;25.01;71.34
20350;BME280;10332;50.208;18.988;2022-08-19T05:00:22;97469.81;;;25.19;70.97
20350;BME280;10332;50.208;18.988;2022-08-19T05:02:49;97461.00;;;25.18;70.95
20350;BME280;10332;50.208;18.988;2022-08-19T05:05:17;97458.66;;;25.29;70.65
20350;BME280;10332;50.208;18.988;2022-08-19T05:07:45;97447.97;;;25.29;70.13
20350;BME280;10332;50.208;18.988;2022-08-19T05:10:12;97457.84;;;25.28;70.16
20350;BME280;10332;50.208;18.988;2022-08-19T05:12:40;97460.28;;;25.36;69.99
20350;BME280;10332;50.208;18.988;2022-08-19T05:15:08;97472.13;;;25.54;69.35
20350;BME280;10332;50.208;18.988;2022-08-19T05:17:35;97470.84;;;25.56;68.82
20350;BME280;10332;50.208;18.988;2022-08-19T05:20:07;97466.91;;;25.59;69.08
20350;BME280;10332;50.208;18.988;2022-08-19T05:22:53;97470.81;;;25.63;68.64
20350;BME280;10332;50.208;18.988;2022-08-19T05:25:22;97463.38;;;25.71;68.16
20350;BME280;10332;50.208;18.988;2022-08-19T05:27:52;97467.69;;;25.72;68.29
20350;BME280;10332;50.208;18.988;2022-08-19T05:30:19;97471.78;;;25.75;68.02
20350;BME280;10332;50.208;18.988;2022-08-19T05:33:07;97481.22;;;25.78;67.67
20350;BME280;10332;50.208;18.988;2022-08-19T05:35:38;97481.44;;;25.69;67.90
20350;BME280;10332;50.208;18.988;2022-08-19T05:38:07;97488.06;;;25.67;68.18
20350;BME280;10332;50.208;18.988;2022-08-19T05:40:37;97482.81;;;25.85;67.61
20350;BME280;10332;50.208;18.988;2022-08-19T05:43:06;97483.41;;;25.87;67.58
20350;BME280;10332;50.208;18.988;2022-08-19T05:45:40;97489.78;;;25.93;67.57
20350;BME280;10332;50.208;18.988;2022-08-19T05:48:13;97491.41;;;25.94;67.14
20350;BME280;10332;50.208;18.988;2022-08-19T05:50:41;97486.66;;;25.96;67.17
20350;BME280;10332;50.208;18.988;2022-08-19T05:53:09;97470.56;;;26.02;66.96
20350;BME280;10332;50.208;18.988;2022-08-19T05:55:37;97479.81;;;26.07;67.03
20350;BME280;10332;50.208;18.988;2022-08-19T05:58:05;97483.03;;;26.15;66.54
20350;BME280;10332;50.208;18.988;2022-08-19T06:00:36;97488.44;;;26.34;66.44
20350;BME280;10332;50.208;18.988;2022-08-19T06:03:04;97489.66;;;26.56;65.87
20350;BME280;10332;50.208;18.988;2022-08-19T06:05:40;97492.81;;;26.71;65.27
20350;BME280;10332;50.208;18.988;2022-08-19T06:08:19;97493.25;;;26.86;64.64
20350;BME280;10332;50.208;18.988;2022-08-19T06:11:18;97490.00;;;26.84;64.74
20350;BME280;10332;50.208;18.988;2022-08-19T06:13:50;97497.28;;;26.96;64.79
20350;BME280;10332;50.208;18.988;2022-08-19T06:16:25;97491.91;;;26.96;64.54
20350;BME280;10332;50.208;18.988;2022-08-19T06:18:54;97499.69;;;27.04;64.64
20350;BME280;10332;50.208;18.988;2022-08-19T06:21:25;97501.31;;;27.05;64.11
20350;BME280;10332;50.208;18.988;2022-08-19T06:23:56;97497.09;;;27.15;63.90
20350;BME280;10332;50.208;18.988;2022-08-19T06:26:24;97499.84;;;27.27;63.68
20350;BME280;10332;50.208;18.988;2022-08-19T06:28:52;97495.28;;;27.28;63.81
20350;BME280;10332;50.208;18.988;2022-08-19T06:31:24;97500.19;;;27.31;63.90
20350;BME280;10332;50.208;18.988;2022-08-19T06:33:52;97510.72;;;27.32;63.85
20350;BME280;10332;50.208;18.988;2022-08-19T06:36:27;97517.72;;;27.33;63.78
20350;BME280;10332;50.208;18.988;2022-08-19T06:38:58;97515.63;;;27.35;63.49
20350;BME280;10332;50.208;18.988;2022-08-19T06:41:27;97517.75;;;27.45;63.46
20350;BME280;10332;50.208;18.988;2022-08-19T06:43:56;97513.66;;;27.42;63.29
20350;BME280;10332;50.208;18.988;2022-08-19T06:46:23;97522.66;;;27.48;63.23
20350;BME280;10332;50.208;18.988;2022-08-19T06:48:51;97528.03;;;27.48;63.38
20350;BME280;10332;50.208;18.988;2022-08-19T06:51:21;97531.22;;;27.57;63.28
20350;BME280;10332;50.208;18.988;2022-08-19T06:53:54;97544.38;;;27.58;63.50
20350;BME280;10332;50.208;18.988;2022-08-19T06:56:28;97542.97;;;27.74;62.99
20350;BME280;10332;50.208;18.988;2022-08-19T06:59:09;97543.25;;;27.84;62.64
20350;BME280;10332;50.208;18.988;2022-08-19T07:02:01;97545.06;;;28.02;61.96
20350;BME280;10332;50.208;18.988;2022-08-19T07:04:31;97546.41;;;28.23;61.22
20350;BME280;10332;50.208;18.988;2022-08-19T07:07:10;97550.75;;;28.36;60.93
20350;BME280;10332;50.208;18.988;2022-08-19T07:09:50;97552.44;;;28.60;60.76
20350;BME280;10332;50.208;18.988;2022-08-19T07:12:31;97566.09;;;28.59;60.85
20350;BME280;10332;50.208;18.988;2022-08-19T07:15:05;97566.19;;;28.52;60.62
20350;BME280;10332;50.208;18.988;2022-08-19T07:17:33;97569.94;;;28.63;60.36
20350;BME280;10332;50.208;18.988;2022-08-19T07:20:06;97580.22;;;28.66;60.44
20350;BME280;10332;50.208;18.988;2022-08-19T07:22:38;97581.13;;;28.48;60.58
20350;BME280;10332;50.208;18.988;2022-08-19T07:25:08;97584.09;;;28.70;60.49
20350;BME280;10332;50.208;18.988;2022-08-19T07:27:36;97580.47;;;28.76;60.44
20350;BME280;10332;50.208;18.988;2022-08-19T07:30:08;97589.22;;;28.83;60.66
20350;BME280;10332;50.208;18.988;2022-08-19T07:32:40;97589.94;;;29.02;59.92
20350;BME280;10332;50.208;18.988;2022-08-19T07:35:10;97593.72;;;29.13;60.04
20350;BME280;10332;50.208;18.988;2022-08-19T07:37:37;97598.25;;;29.24;59.66
20350;BME280;10332;50.208;18.988;2022-08-19T07:40:07;97596.81;;;29.33;59.89
20350;BME280;10332;50.208;18.988;2022-08-19T07:42:35;97603.16;;;29.50;59.77
20350;BME280;10332;50.208;18.988;2022-08-19T07:45:04;97599.34;;;29.63;58.58
20350;BME280;10332;50.208;18.988;2022-08-19T07:47:32;97602.63;;;29.65;58.97
20350;BME280;10332;50.208;18.988;2022-08-19T07:50:19;97602.03;;;29.75;58.34
20350;BME280;10332;50.208;18.988;2022-08-19T07:52:48;97597.97;;;29.89;58.09
20350;BME280;10332;50.208;18.988;2022-08-19T07:55:23;97603.41;;;30.06;57.66
20350;BME280;10332;50.208;18.988;2022-08-19T07:58:12;97607.13;;;30.16;57.74
20350;BME280;10332;50.208;18.988;2022-08-19T08:00:42;97599.91;;;30.34;57.90
20350;BME280;10332;50.208;18.988;2022-08-19T08:03:11;97610.69;;;30.50;56.70
20350;BME280;10332;50.208;18.988;2022-08-19T08:05:39;97609.47;;;30.58;56.82
20350;BME280;10332;50.208;18.988;2022-08-19T08:08:26;97613.19;;;30.69;56.15
20350;BME280;10332;50.208;18.988;2022-08-19T08:11:19;97615.31;;;30.67;56.19
20350;BME280;10332;50.208;18.988;2022-08-19T08:13:50;97607.91;;;30.62;56.44
20350;BME280;10332;50.208;18.988;2022-08-19T08:16:34;97607.84;;;30.57;56.69
20350;BME280;10332;50.208;18.988;2022-08-19T08:19:14;97611.88;;;30.71;56.73
20350;BME280;10332;50.208;18.988;2022-08-19T08:21:55;97603.72;;;30.83;56.51
20350;BME280;10332;50.208;18.988;2022-08-19T08:24:26;97607.63;;;30.92;56.44
20350;BME280;10332;50.208;18.988;2022-08-19T08:27:00;97614.81;;;30.87;56.04
20350;BME280;10332;50.208;18.988;2022-08-19T08:29:30;97605.59;;;30.83;56.06
20350;BME280;10332;50.208;18.988;2022-08-19T08:32:01;97599.09;;;31.00;56.03
20350;BME280;10332;50.208;18.988;2022-08-19T08:34:40;97594.03;;;31.21;55.80
20350;BME280;10332;50.208;18.988;2022-08-19T08:37:08;97591.22;;;31.32;55.58
20350;BME280;10332;50.208;18.988;2022-08-19T08:39:35;97601.38;;;31.25;56.17
20350;BME280;10332;50.208;18.988;2022-08-19T08:42:22;97599.00;;;31.12;56.92
20350;BME280;10332;50.208;18.988;2022-08-19T08:45:02;97602.53;;;30.96;57.56
20350;BME280;10332;50.208;18.988;2022-08-19T08:47:39;97595.66;;;31.05;57.61
20350;BME280;10332;50.208;18.988;2022-08-19T08:52:47;97589.50;;;31.26;57.27
20350;BME280;10332;50.208;18.988;2022-08-19T08:55:28;97589.47;;;31.65;56.27
20350;BME280;10332;50.208;18.988;2022-08-19T08:58:13;97582.38;;;32.08;55.35
20350;BME280;10332;50.208;18.988;2022-08-19T09:00:47;97580.63;;;32.18;54.71
20350;BME280;10332;50.208;18.988;2022-08-19T09:03:27;97578.72;;;32.19;54.71
20350;BME280;10332;50.208;18.988;2022-08-19T09:15:00;97590.00;;;32.11;53.55
20350;BME280;10332;50.208;18.988;2022-08-19T09:17:31;97590.53;;;32.13;nan
20350;BME280;10332;50.208;18.988;2022-08-19T09:22:39;97588.72;;;33.25;50.55
20350;BME280;10332;50.208;18.988;2022-08-19T09:25:10;97588.13;;;33.65;49.08
20350;BME280;10332;50.208;18.988;2022-08-19T09:27:40;97592.94;;;34.41;47.64
20350;BME280;10332;50.208;18.988;2022-08-19T09:30:21;97596.22;;;34.99;46.77
20350;BME280;10332;50.208;18.988;2022-08-19T09:32:50;97602.59;;;35.49;44.42
20350;BME280;10332;50.208;18.988;2022-08-19T09:35:23;97602.38;;;35.40;44.54
20350;BME280;10332;50.208;18.988;2022-08-19T09:37:52;97601.59;;;35.24;43.82
20350;BME280;10332;50.208;18.988;2022-08-19T09:40:31;97598.53;;;36.11;42.99
20350;BME280;10332;50.208;18.988;2022-08-19T09:43:07;97599.31;;;36.11;42.19
20350;BME280;10332;50.208;18.988;2022-08-19T09:45:36;97601.81;;;36.47;41.88
20350;BME280;10332;50.208;18.988;2022-08-19T09:48:04;97595.25;;;36.14;42.23
20350;BME280;10332;50.208;18.988;2022-08-19T09:50:32;97595.72;;;36.21;42.11
20350;BME280;10332;50.208;18.988;2022-08-19T09:53:02;97597.72;;;36.84;40.89
20350;BME280;10332;50.208;18.988;2022-08-19T09:55:32;97605.31;;;41.40;34.22
20350;BME280;10332;50.208;18.988;2022-08-19T09:58:01;97614.38;;;41.09;32.21
20350;BME280;10332;50.208;18.988;2022-08-19T10:00:30;97615.34;;;39.47;33.84
20350;BME280;10332;50.208;18.988;2022-08-19T10:02:58;97621.28;;;38.37;34.54
20350;BME280;10332;50.208;18.988;2022-08-19T10:05:27;97609.16;;;39.68;33.17
20350;BME280;10332;50.208;18.988;2022-08-19T10:08:28;97608.75;;;38.36;34.64
20350;BME280;10332;50.208;18.988;2022-08-19T10:10:57;97607.50;;;37.67;35.80
20350;BME280;10332;50.208;18.988;2022-08-19T10:13:29;97606.81;;;37.27;35.52
20350;BME280;10332;50.208;18.988;2022-08-19T10:16:05;97615.22;;;40.88;30.68
20350;BME280;10332;50.208;18.988;2022-08-19T10:18:35;97633.34;;;47.27;23.43
20350;BME280;10332;50.208;18.988;2022-08-19T10:21:20;97639.00;;;50.68;21.20
20350;BME280;10332;50.208;18.988;2022-08-19T10:23:55;97639.59;;;52.32;20.13
20350;BME280;10332;50.208;18.988;2022-08-19T10:26:37;97649.44;;;56.65;16.73
20350;BME280;10332;50.208;18.988;2022-08-19T10:29:08;97647.09;;;58.67;15.67
20350;BME280;10332;50.208;18.988;2022-08-19T10:31:37;97635.25;;;55.73;14.72
20350;BME280;10332;50.208;18.988;2022-08-19T10:34:26;97635.09;;;60.64;12.03
20350;BME280;10332;50.208;18.988;2022-08-19T10:36:55;97631.44;;;60.26;12.29
20350;BME280;10332;50.208;18.988;2022-08-19T10:39:34;97634.28;;;62.62;11.25
20350;BME280;10332;50.208;18.988;2022-08-19T10:42:10;97630.72;;;63.02;10.98
20350;BME280;10332;50.208;18.988;2022-08-19T10:44:39;97619.94;;;64.01;10.29
20350;BME280;10332;50.208;18.988;2022-08-19T10:47:07;97618.94;;;64.41;10.76
20350;BME280;10332;50.208;18.988;2022-08-19T10:49:55;97616.16;;;63.77;10.03
20350;BME280;10332;50.208;18.988;2022-08-19T10:52:48;97596.06;;;62.58;10.59
20350;BME280;10332;50.208;18.988;2022-08-19T10:55:23;97595.53;;;63.58;10.81
20350;BME280;10332;50.208;18.988;2022-08-19T10:58:16;97587.16;;;62.16;10.31
20350;BME280;10332;50.208;18.988;2022-08-19T11:00:57;97583.31;;;57.38;12.87
20350;BME280;10332;50.208;18.988;2022-08-19T11:03:26;97539.88;;;50.49;16.41
20350;BME280;10332;50.208;18.988;2022-08-19T11:06:05;97531.28;;;50.65;16.99
20350;BME280;10332;50.208;18.988;2022-08-19T11:08:34;97528.75;;;49.33;18.12
20350;BME280;10332;50.208;18.988;2022-08-19T11:11:02;97535.09;;;49.07;18.56
20350;BME280;10332;50.208;18.988;2022-08-19T11:13:33;97541.63;;;48.95;18.89
20350;BME280;10332;50.208;18.988;2022-08-19T11:16:14;97538.69;;;48.03;19.38
20350;BME280;10332;50.208;18.988;2022-08-19T11:18:48;97538.00;;;46.61;20.03
20350;BME280;10332;50.208;18.988;2022-08-19T11:21:27;97530.59;;;45.20;21.84
20350;BME280;10332;50.208;18.988;2022-08-19T11:23:58;97527.66;;;43.93;22.35
20350;BME280;10332;50.208;18.988;2022-08-19T11:26:29;97530.13;;;42.07;24.21
20350;BME280;10332;50.208;18.988;2022-08-19T11:28:59;97523.47;;;43.66;22.94
20350;BME280;10332;50.208;18.988;2022-08-19T11:31:30;97526.34;;;44.20;22.03
20350;BME280;10332;50.208;18.988;2022-08-19T11:34:01;97535.13;;;46.73;20.11
20350;BME280;10332;50.208;18.988;2022-08-19T11:36:31;97530.19;;;48.54;18.98
20350;BME280;10332;50.208;18.988;2022-08-19T11:39:01;97521.66;;;48.44;18.79
20350;BME280;10332;50.208;18.988;2022-08-19T11:41:29;97520.91;;;48.89;18.72
20350;BME280;10332;50.208;18.988;2022-08-19T11:43:56;97532.28;;;48.61;19.11
20350;BME280;10332;50.208;18.988;2022-08-19T11:46:26;97516.81;;;49.02;18.86
20350;BME280;10332;50.208;18.988;2022-08-19T11:48:58;97524.53;;;49.16;18.99
20350;BME280;10332;50.208;18.988;2022-08-19T11:51:29;97528.25;;;47.62;19.47
20350;BME280;10332;50.208;18.988;2022-08-19T11:53:58;97527.44;;;44.39;21.62
20350;BME280;10332;50.208;18.988;2022-08-19T11:56:27;97518.44;;;43.68;22.19
20350;BME280;10332;50.208;18.988;2022-08-19T11:58:55;97519.59;;;42.52;23.59
20350;BME280;10332;50.208;18.988;2022-08-19T12:01:26;97517.94;;;42.68;23.72
20350;BME280;10332;50.208;18.988;2022-08-19T12:03:56;97515.41;;;42.37;24.17
20350;BME280;10332;50.208;18.988;2022-08-19T12:06:29;97517.38;;;42.19;24.78
20350;BME280;10332;50.208;18.988;2022-08-19T12:09:01;97515.41;;;42.37;24.80
20350;BME280;10332;50.208;18.988;2022-08-19T12:11:28;97506.88;;;42.30;25.11
20350;BME280;10332;50.208;18.988;2022-08-19T12:14:00;97519.47;;;42.14;25.43
20350;BME280;10332;50.208;18.988;2022-08-19T12:16:30;97514.41;;;41.07;25.95
20350;BME280;10332;50.208;18.988;2022-08-19T12:18:59;97506.94;;;41.30;26.17
20350;BME280;10332;50.208;18.988;2022-08-19T12:21:34;97504.72;;;41.58;25.40
20350;BME280;10332;50.208;18.988;2022-08-19T12:24:05;97503.91;;;41.49;25.63
20350;BME280;10332;50.208;18.988;2022-08-19T12:26:33;97502.81;;;40.25;26.56
20350;BME280;10332;50.208;18.988;2022-08-19T12:29:19;97491.50;;;40.41;26.86
20350;BME280;10332;50.208;18.988;2022-08-19T12:31:50;97503.84;;;40.07;27.08
20350;BME280;10332;50.208;18.988;2022-08-19T12:34:17;97494.63;;;39.53;27.73
20350;BME280;10332;50.208;18.988;2022-08-19T12:36:47;97483.69;;;40.03;27.85
20350;BME280;10332;50.208;18.988;2022-08-19T12:39:16;97489.22;;;40.12;27.50
20350;BME280;10332;50.208;18.988;2022-08-19T12:41:44;97481.19;;;40.38;27.41
20350;BME280;10332;50.208;18.988;2022-08-19T12:44:22;97484.00;;;40.24;27.68
20350;BME280;10332;50.208;18.988;2022-08-19T12:46:56;97482.56;;;40.49;27.76
20350;BME280;10332;50.208;18.988;2022-08-19T12:49:24;97469.69;;;40.49;27.67
20350;BME280;10332;50.208;18.988;2022-08-19T12:52:12;97470.31;;;40.46;28.25
20350;BME280;10332;50.208;18.988;2022-08-19T12:54:49;97467.84;;;40.14;28.13
20350;BME280;10332;50.208;18.988;2022-08-19T12:57:23;97480.28;;;40.20;28.50
20350;BME280;10332;50.208;18.988;2022-08-19T13:00:13;97465.94;;;39.78;28.07
20350;BME280;10332;50.208;18.988;2022-08-19T13:02:46;97469.72;;;39.19;28.71
20350;BME280;10332;50.208;18.988;2022-08-19T13:05:21;97464.25;;;39.68;28.49
20350;BME280;10332;50.208;18.988;2022-08-19T13:07:52;97466.06;;;39.09;29.04
20350;BME280;10332;50.208;18.988;2022-08-19T13:10:27;97467.69;;;39.74;28.90
20350;BME280;10332;50.208;18.988;2022-08-19T13:12:56;97476.31;;;40.04;28.71
20350;BME280;10332;50.208;18.988;2022-08-19T13:15:26;97461.66;;;40.08;28.70
20350;BME280;10332;50.208;18.988;2022-08-19T13:17:55;97475.72;;;40.15;29.22
20350;BME280;10332;50.208;18.988;2022-08-19T13:20:25;97468.31;;;40.16;28.92
20350;BME280;10332;50.208;18.988;2022-08-19T13:22:54;97472.63;;;40.08;29.16
20350;BME280;10332;50.208;18.988;2022-08-19T13:25:22;97467.81;;;40.36;29.04
20350;BME280;10332;50.208;18.988;2022-08-19T13:27:50;97471.66;;;40.35;28.92
20350;BME280;10332;50.208;18.988;2022-08-19T13:30:20;97475.28;;;39.99;28.87